createdAt,value
2017-01-02T19:44:25.780Z,26.29
2017-01-02T19:44:53.571Z,26.29
2017-01-02T19:45:21.400Z,26.22
2017-01-02T19:45:49.172Z,26
2017-01-02T19:46:16.991Z,25.98
2017-01-02T19:46:44.794Z,25.84
2017-01-02T19:47:12.584Z,25.6
2017-01-02T19:47:40.380Z,25.54
2017-01-02T19:48:08.177Z,25.36
2017-01-02T19:48:36.009Z,25.36
2017-01-02T19:49:03.862Z,25.54
2017-01-02T19:49:31.838Z,25.66
2017-01-02T19:49:59.644Z,25.7
2017-01-02T19:50:27.468Z,25.69
2017-01-02T19:50:55.276Z,25.81
2017-01-02T19:51:23.119Z,25.83
2017-01-02T19:51:50.997Z,25.98
2017-01-02T19:52:18.772Z,26
2017-01-02T19:52:46.570Z,26
2017-01-02T19:53:14.348Z,26.03
2017-01-02T19:53:42.142Z,26.03
2017-01-02T19:54:09.933Z,26.19
2017-01-02T19:54:37.818Z,26.15
2017-01-02T19:55:06.459Z,26.1
2017-01-02T19:56:21.203Z,26.29
2017-01-02T19:56:51.994Z,26.26
2017-01-02T19:57:19.763Z,26.33
2017-01-02T19:57:47.710Z,26.31
2017-01-02T19:58:15.522Z,26.31
2017-01-02T19:58:43.455Z,26.36
2017-01-02T19:59:11.393Z,26.33
2017-01-02T19:59:39.295Z,26.36
2017-01-02T20:00:07.135Z,26.41
2017-01-02T20:00:35.012Z,26.41
2017-01-02T20:01:02.813Z,26.37
2017-01-02T20:01:30.636Z,26.34
2017-01-02T20:01:58.428Z,26.31
2017-01-02T20:02:26.270Z,26.36
2017-01-02T20:02:54.094Z,26.38
2017-01-02T20:03:21.892Z,26.34
2017-01-02T20:03:49.669Z,26.47
2017-01-02T20:04:17.476Z,26.53
2017-01-02T20:04:45.342Z,26.55
2017-01-02T20:05:13.131Z,26.63
2017-01-02T20:05:40.923Z,26.65
2017-01-02T20:06:08.751Z,26.68
2017-01-02T20:06:36.535Z,26.71
2017-01-02T20:07:04.307Z,26.73
2017-01-02T20:07:32.170Z,26.73
2017-01-02T20:07:59.978Z,26.68
2017-01-02T20:08:27.716Z,26.78
2017-01-02T20:08:55.530Z,26.84
2017-01-02T20:09:23.383Z,26.84
2017-01-02T20:09:51.251Z,26.93
2017-01-02T20:10:19.016Z,26.99
2017-01-02T20:10:46.870Z,26.93
2017-01-02T20:11:14.685Z,26.99
2017-01-02T20:11:42.424Z,26.92
2017-01-02T20:12:10.748Z,26.83
2017-01-02T20:12:38.479Z,26.85
2017-01-02T20:13:06.481Z,26.78
2017-01-02T20:13:34.436Z,26.81
2017-01-02T20:14:02.238Z,26.81
2017-01-02T20:14:30.151Z,26.78
2017-01-02T20:14:58.086Z,26.77
2017-01-02T20:15:25.837Z,26.88
2017-01-02T20:15:53.640Z,26.85
2017-01-02T20:16:21.411Z,26.81
2017-01-02T20:16:49.207Z,26.66
2017-01-02T20:17:16.967Z,26.71
2017-01-02T20:17:44.780Z,26.74
2017-01-02T20:18:12.557Z,26.7
2017-01-02T20:18:40.313Z,26.66
2017-01-02T20:19:08.045Z,26.7
2017-01-02T20:19:35.849Z,26.65
2017-01-02T20:20:03.749Z,26.63
2017-01-02T20:20:31.544Z,26.71
2017-01-02T20:20:59.440Z,26.63
2017-01-02T20:21:27.218Z,26.68
2017-01-02T20:21:54.977Z,26.6
2017-01-02T20:22:22.828Z,26.55
2017-01-02T20:22:50.597Z,26.58
2017-01-02T20:23:18.321Z,26.71
2017-01-02T20:23:46.072Z,26.78
2017-01-02T20:24:13.863Z,26.84
2017-01-02T20:24:41.633Z,26.81
2017-01-02T20:25:23.508Z,26.89
2017-01-02T20:25:51.265Z,26.88
2017-01-02T20:26:19.039Z,26.8
2017-01-02T20:26:46.918Z,26.81
2017-01-02T20:27:14.739Z,26.75
2017-01-02T20:27:42.573Z,26.81
2017-01-02T20:28:10.359Z,26.81
2017-01-02T20:28:38.152Z,26.92
2017-01-02T20:29:05.982Z,26.92
2017-01-02T20:29:33.777Z,26.99
2017-01-02T20:30:01.629Z,26.92
2017-01-02T20:30:29.492Z,26.95
2017-01-02T20:30:57.299Z,27.02
2017-01-02T20:31:25.063Z,26.93
2017-01-02T20:31:52.867Z,26.93
2017-01-02T20:32:20.669Z,27.02
2017-01-02T20:32:48.481Z,27.03
2017-01-02T20:33:16.276Z,27
2017-01-02T20:33:44.083Z,26.92
2017-01-02T20:34:11.857Z,26.85
2017-01-02T20:34:39.702Z,26.85
2017-01-02T20:35:07.584Z,26.83
2017-01-02T20:35:35.391Z,26.73
2017-01-02T20:36:03.175Z,26.8
2017-01-02T20:36:30.995Z,26.83
2017-01-02T20:36:58.792Z,26.92
2017-01-02T20:37:26.607Z,26.89
2017-01-02T20:37:54.447Z,26.88
2017-01-02T20:38:22.274Z,26.77
2017-01-02T20:38:50.077Z,26.93
2017-01-02T20:39:17.943Z,26.9
2017-01-02T20:39:45.809Z,26.93
2017-01-02T20:40:13.682Z,26.89
2017-01-02T20:40:41.442Z,26.85
2017-01-02T20:41:09.333Z,26.84
2017-01-02T20:41:37.079Z,26.78
2017-01-02T20:42:04.889Z,26.84
2017-01-02T20:42:32.712Z,26.89
2017-01-02T20:43:00.556Z,26.9
2017-01-02T20:43:28.414Z,26.81
2017-01-02T20:43:56.284Z,26.88
2017-01-02T20:44:24.053Z,26.88
2017-01-02T20:44:51.856Z,26.81
2017-01-02T20:45:19.729Z,26.93
2017-01-02T20:45:47.488Z,26.95
2017-01-02T20:46:15.316Z,26.93
2017-01-02T20:46:43.161Z,26.81
2017-01-02T20:47:10.959Z,26.78
2017-01-02T20:47:38.734Z,26.77
2017-01-02T20:48:06.477Z,26.84
2017-01-02T20:48:34.329Z,26.88
2017-01-02T20:49:02.118Z,26.85
2017-01-02T20:49:29.917Z,26.71
2017-01-02T20:49:57.667Z,26.74
2017-01-02T20:50:25.578Z,26.75
2017-01-02T20:50:53.363Z,26.6
2017-01-02T20:51:21.169Z,26.7
2017-01-02T20:51:49.007Z,26.71
2017-01-02T20:52:16.859Z,26.71
2017-01-02T20:52:44.690Z,26.65
2017-01-02T20:53:12.494Z,26.63
2017-01-02T20:53:40.305Z,26.59
2017-01-02T20:54:08.100Z,26.71
2017-01-02T20:54:35.946Z,26.59
2017-01-02T20:55:03.709Z,26.63
2017-01-02T20:55:31.511Z,26.71
2017-01-02T20:55:59.266Z,26.65
2017-01-02T20:56:27.066Z,26.66
2017-01-02T20:56:54.866Z,26.65
2017-01-02T20:57:22.665Z,26.62
2017-01-02T20:57:50.475Z,26.65
2017-01-02T20:58:18.252Z,26.66
2017-01-02T20:58:46.064Z,26.55
2017-01-02T20:59:13.848Z,26.53
2017-01-02T20:59:41.604Z,26.58
2017-01-02T21:00:09.378Z,26.56
2017-01-02T21:00:37.295Z,26.52
2017-01-02T21:01:05.114Z,26.41
2017-01-02T21:01:32.940Z,26.26
2017-01-02T21:02:00.762Z,26.34
2017-01-02T21:02:28.670Z,26.44
2017-01-02T21:02:56.642Z,26.47
2017-01-02T21:03:24.573Z,26.52
2017-01-02T21:03:52.357Z,26.51
2017-01-02T21:04:20.138Z,26.45
2017-01-02T21:04:47.916Z,26.45
2017-01-02T21:05:15.804Z,26.47
2017-01-02T21:05:43.653Z,26.36
2017-01-02T21:06:11.453Z,26.36
2017-01-02T21:06:39.276Z,26.29
2017-01-02T21:07:07.053Z,26.29
2017-01-02T21:07:34.847Z,26.34
2017-01-02T21:08:02.644Z,26.29
2017-01-02T21:08:30.531Z,26.33
2017-01-02T21:08:58.364Z,26.34
2017-01-02T21:09:26.188Z,26.31
2017-01-02T21:09:54.003Z,26.29
2017-01-02T21:10:21.798Z,26.29
2017-01-02T21:10:49.673Z,26.34
2017-01-02T21:11:17.442Z,26.29
2017-01-02T21:11:45.207Z,26.31
2017-01-02T21:12:13.083Z,26.31
2017-01-02T21:12:41.011Z,26.28
2017-01-02T21:13:08.782Z,26.22
2017-01-02T21:13:36.668Z,26.07
2017-01-02T21:14:04.453Z,26
2017-01-02T21:14:32.209Z,25.93
2017-01-02T21:15:00.016Z,25.85
2017-01-02T21:15:27.875Z,25.78
2017-01-02T21:15:55.858Z,25.78
2017-01-02T21:16:23.677Z,25.73
2017-01-02T21:16:51.446Z,25.63
2017-01-02T21:17:19.403Z,25.69
2017-01-02T21:17:47.228Z,25.69
2017-01-02T21:18:15.011Z,25.7
2017-01-02T21:18:42.809Z,25.8
2017-01-02T21:19:10.595Z,25.78
2017-01-02T21:19:38.374Z,25.7
2017-01-02T21:20:06.158Z,25.8
2017-01-02T21:20:33.899Z,25.8
2017-01-02T21:21:01.740Z,25.75
2017-01-02T21:21:29.522Z,25.81
2017-01-02T21:21:57.296Z,25.91
2017-01-02T21:22:25.076Z,25.98
2017-01-02T21:22:52.926Z,26.03
2017-01-02T21:23:20.737Z,26.19
2017-01-02T21:23:48.630Z,26.16
2017-01-02T21:24:16.416Z,26.26
2017-01-02T21:24:44.202Z,26.29
2017-01-02T21:25:11.963Z,26.28
2017-01-02T21:25:39.769Z,26.26
2017-01-02T21:26:07.741Z,26.26
2017-01-02T21:26:35.464Z,26.28
2017-01-02T21:27:03.232Z,26.36
2017-01-02T21:27:30.987Z,26.4
2017-01-02T21:27:58.750Z,26.38
2017-01-02T21:28:26.492Z,26.34
2017-01-02T21:28:54.338Z,26.29
2017-01-02T21:29:22.193Z,26.29
2017-01-02T21:29:50.009Z,26.33
2017-01-02T21:30:17.888Z,26.4
2017-01-02T21:30:45.659Z,26.31
2017-01-02T21:31:13.503Z,26.33
2017-01-02T21:31:41.241Z,26.28
2017-01-02T21:32:09.053Z,26.33
2017-01-02T21:32:36.860Z,26.33
2017-01-02T21:33:04.621Z,26.28
2017-01-02T21:33:32.499Z,26.19
2017-01-02T21:34:00.323Z,26.26
2017-01-02T21:34:28.121Z,26.31
2017-01-02T21:34:56.009Z,26.31
2017-01-02T21:35:23.747Z,26.19
2017-01-02T21:35:51.538Z,26.1
2017-01-02T21:36:19.403Z,26.15
2017-01-02T21:36:47.254Z,26.19
2017-01-02T21:37:15.185Z,26.13
2017-01-02T21:37:43.015Z,26.03
2017-01-02T21:38:10.817Z,26.1
2017-01-02T21:38:38.564Z,26.05
2017-01-02T21:39:06.325Z,26.03
2017-01-02T21:39:34.114Z,26.06
2017-01-02T21:40:01.917Z,26.05
2017-01-02T21:40:29.889Z,26.05
2017-01-02T21:40:57.794Z,26.07
2017-01-02T21:41:25.590Z,26.07
2017-01-02T21:41:53.418Z,26.03
2017-01-02T21:42:21.160Z,26.05
2017-01-02T21:42:48.898Z,26.06
2017-01-02T21:43:16.767Z,26.06
2017-01-02T21:43:44.570Z,26.05
2017-01-02T21:44:12.365Z,26.03
2017-01-02T21:44:40.144Z,26
2017-01-02T21:45:07.950Z,25.91
2017-01-02T21:45:35.767Z,25.88
2017-01-02T21:46:03.646Z,25.87
2017-01-02T21:46:31.424Z,25.91
2017-01-02T21:46:59.143Z,25.84
2017-01-02T21:47:26.897Z,25.88
2017-01-02T21:47:54.680Z,25.78
2017-01-02T21:48:22.481Z,25.77
2017-01-02T21:48:50.282Z,25.75
2017-01-02T21:49:18.042Z,25.72
2017-01-02T21:49:45.809Z,25.77
2017-01-02T21:50:13.582Z,25.78
2017-01-02T21:50:41.367Z,25.73
2017-01-02T21:51:09.320Z,25.73
2017-01-02T21:51:37.073Z,25.75
2017-01-02T21:52:04.853Z,25.77
2017-01-02T21:52:32.695Z,25.77
2017-01-02T21:53:00.532Z,25.84
2017-01-02T21:53:28.326Z,25.87
2017-01-02T21:53:56.154Z,25.98
2017-01-02T21:54:23.920Z,25.98
2017-01-02T21:54:51.711Z,25.87
2017-01-02T21:55:19.581Z,25.85
2017-01-02T21:55:47.411Z,26.02
2017-01-02T21:56:15.370Z,26
2017-01-02T21:56:43.223Z,25.9
2017-01-02T21:57:11.195Z,25.91
2017-01-02T21:57:39.000Z,25.84
2017-01-02T21:58:06.805Z,25.68
2017-01-02T21:58:34.594Z,25.84
2017-01-02T21:59:02.358Z,25.8
2017-01-02T21:59:30.109Z,25.78
2017-01-02T21:59:57.906Z,25.95
2017-01-02T22:00:25.812Z,25.87
2017-01-02T22:00:53.620Z,25.84
2017-01-02T22:01:21.524Z,25.91
2017-01-02T22:01:49.384Z,25.9
2017-01-02T22:02:17.116Z,25.91
2017-01-02T22:02:44.899Z,25.87
2017-01-02T22:03:12.660Z,25.96
2017-01-02T22:03:40.480Z,25.9
2017-01-02T22:04:08.264Z,25.8
2017-01-02T22:04:36.142Z,25.81
2017-01-02T22:05:03.891Z,25.9
2017-01-02T22:05:31.713Z,26.02
2017-01-02T22:05:59.634Z,26.06
2017-01-02T22:06:27.518Z,26.09
2017-01-02T22:06:55.396Z,26.13
2017-01-02T22:07:23.358Z,26.13
2017-01-02T22:07:51.139Z,26.19
2017-01-02T22:08:18.896Z,26.19
2017-01-02T22:08:46.660Z,26.15
2017-01-02T22:09:14.442Z,26.19
2017-01-02T22:09:42.328Z,26.03
2017-01-02T22:10:10.147Z,26.21
2017-01-02T22:10:37.953Z,26.06
2017-01-02T22:11:05.819Z,26.06
2017-01-02T22:11:33.712Z,26
2017-01-02T22:12:01.487Z,26.06
2017-01-02T22:12:29.420Z,26
2017-01-02T22:12:57.214Z,26.07
2017-01-02T22:13:25.001Z,26.1
2017-01-02T22:13:52.805Z,26.05
2017-01-02T22:14:20.600Z,26.06
2017-01-02T22:14:48.501Z,26.06
2017-01-02T22:15:16.285Z,26.06
2017-01-02T22:15:44.081Z,26.06
2017-01-02T22:16:11.891Z,25.99
2017-01-02T22:16:39.934Z,25.93
2017-01-02T22:17:07.729Z,25.91
2017-01-02T22:17:35.509Z,25.98
2017-01-02T22:18:03.282Z,25.99
2017-01-02T22:18:31.011Z,25.91
2017-01-02T22:18:58.865Z,25.83
2017-01-02T22:19:26.685Z,25.91
2017-01-02T22:19:54.463Z,25.93
2017-01-02T22:20:22.329Z,26
2017-01-02T22:20:50.105Z,26.05
2017-01-02T22:21:17.843Z,26.02
2017-01-02T22:21:45.811Z,26.13
2017-01-02T22:22:13.611Z,26.16
2017-01-02T22:22:41.376Z,26.18
2017-01-02T22:23:09.173Z,26.13
2017-01-02T22:23:36.922Z,26.13
2017-01-02T22:24:04.829Z,26.21
2017-01-02T22:24:32.556Z,26.09
2017-01-02T22:25:00.309Z,26.15
2017-01-02T22:25:28.079Z,26.19
2017-01-02T22:25:55.843Z,26.25
2017-01-02T22:26:23.586Z,26.31
2017-01-02T22:26:51.449Z,26.31
2017-01-02T22:27:19.261Z,26.26
2017-01-02T22:27:47.051Z,26.31
2017-01-02T22:28:14.871Z,26.31
2017-01-02T22:28:42.647Z,26.28
2017-01-02T22:29:10.433Z,26.26
2017-01-02T22:29:38.211Z,26.18
2017-01-02T22:30:06.102Z,26.23
2017-01-02T22:30:33.951Z,26.18
2017-01-02T22:31:01.758Z,26.16
2017-01-02T22:31:29.675Z,26.09
2017-01-02T22:31:57.534Z,26.09
2017-01-02T22:32:25.358Z,25.99
2017-01-02T22:32:53.108Z,26.07
2017-01-02T22:33:20.950Z,26.06
2017-01-02T22:33:48.740Z,26.03
2017-01-02T22:34:16.571Z,26.07
2017-01-02T22:34:44.390Z,26.02
2017-01-02T22:35:12.149Z,26.06
2017-01-02T22:35:39.968Z,25.96
2017-01-02T22:36:07.790Z,25.95
2017-01-02T22:36:35.538Z,25.85
2017-01-02T22:37:03.406Z,25.8
2017-01-02T22:37:31.181Z,25.83
2017-01-02T22:37:58.990Z,25.83
2017-01-02T22:38:26.812Z,25.85
2017-01-02T22:38:54.605Z,25.9
2017-01-02T22:39:22.381Z,25.83
2017-01-02T22:39:50.224Z,25.81
2017-01-02T22:40:18.051Z,25.7
2017-01-02T22:40:45.830Z,25.78
2017-01-02T22:41:13.766Z,25.77
2017-01-02T22:41:41.633Z,25.73
2017-01-02T22:42:09.436Z,25.8
2017-01-02T22:42:37.264Z,25.7
2017-01-02T22:43:05.069Z,25.81
2017-01-02T22:43:32.844Z,25.81
2017-01-02T22:44:00.655Z,25.73
2017-01-02T22:44:28.458Z,25.72
2017-01-02T22:44:56.286Z,25.8
2017-01-02T22:45:24.052Z,25.75
2017-01-02T22:45:51.813Z,25.7
2017-01-02T22:46:19.633Z,25.77
2017-01-02T22:46:47.534Z,25.83
2017-01-02T22:47:15.310Z,25.81
2017-01-02T22:47:43.063Z,25.78
2017-01-02T22:48:10.875Z,25.84
2017-01-02T22:48:38.709Z,25.73
2017-01-02T22:49:06.448Z,25.72
2017-01-02T22:49:34.254Z,25.72
2017-01-02T22:50:02.042Z,25.81
2017-01-02T22:50:29.901Z,25.8
2017-01-02T22:50:57.776Z,25.81
2017-01-02T22:51:25.623Z,25.78
2017-01-02T22:51:53.586Z,25.85
2017-01-02T22:52:21.386Z,25.84
2017-01-02T22:52:49.133Z,25.78
2017-01-02T22:53:16.971Z,25.78
2017-01-02T22:53:44.776Z,25.81
2017-01-02T22:54:12.541Z,25.77
2017-01-02T22:54:40.272Z,25.78
2017-01-02T22:55:08.055Z,25.77
2017-01-02T22:55:35.834Z,25.73
2017-01-02T22:56:03.677Z,25.75
2017-01-02T22:56:31.490Z,25.84
2017-01-02T22:56:59.372Z,25.87
2017-01-02T22:57:27.104Z,25.85
2017-01-02T22:57:54.875Z,25.88
2017-01-02T22:58:22.728Z,25.93
2017-01-02T22:58:50.522Z,25.93
2017-01-02T22:59:18.312Z,25.91
2017-01-02T22:59:46.062Z,25.9
2017-01-02T23:00:13.886Z,25.88
2017-01-02T23:00:41.654Z,25.85
2017-01-02T23:01:09.470Z,25.77
2017-01-02T23:01:37.339Z,25.78
2017-01-02T23:02:05.175Z,25.85
2017-01-02T23:02:32.956Z,25.8
2017-01-02T23:03:00.740Z,25.78
2017-01-02T23:03:28.518Z,25.81
2017-01-02T23:03:56.277Z,25.77
2017-01-02T23:04:24.120Z,25.81
2017-01-02T23:04:51.994Z,25.77
2017-01-02T23:05:19.737Z,25.8
2017-01-02T23:05:47.503Z,25.87
2017-01-02T23:06:15.309Z,25.88
2017-01-02T23:06:43.222Z,25.88
2017-01-02T23:07:11.162Z,25.91
2017-01-02T23:07:39.012Z,25.8
2017-01-02T23:08:06.808Z,25.81
2017-01-02T23:08:34.596Z,25.75
2017-01-02T23:09:02.352Z,25.81
2017-01-02T23:09:30.121Z,25.73
2017-01-02T23:09:57.931Z,25.77
2017-01-02T23:10:25.788Z,25.73
2017-01-02T23:10:53.598Z,25.84
2017-01-02T23:11:21.403Z,25.77
2017-01-02T23:11:49.232Z,25.7
2017-01-02T23:12:17.121Z,25.83
2017-01-02T23:12:44.907Z,25.65
2017-01-02T23:13:12.637Z,25.59
2017-01-02T23:13:40.430Z,25.7
2017-01-02T23:14:08.233Z,25.7
2017-01-02T23:14:36.024Z,25.73
2017-01-02T23:15:03.932Z,25.7
2017-01-02T23:15:31.726Z,25.83
2017-01-02T23:15:59.527Z,25.73
2017-01-02T23:16:27.253Z,25.7
2017-01-02T23:16:55.040Z,25.81
2017-01-02T23:17:22.997Z,25.78
2017-01-02T23:17:50.817Z,25.81
2017-01-02T23:18:18.577Z,25.69
2017-01-02T23:18:46.345Z,25.73
2017-01-02T23:19:14.104Z,25.81
2017-01-02T23:19:41.856Z,25.83
2017-01-02T23:20:09.697Z,25.78
2017-01-02T23:20:37.484Z,25.83
2017-01-02T23:21:05.270Z,25.88
2017-01-02T23:21:33.041Z,25.78
2017-01-02T23:22:00.794Z,25.78
2017-01-02T23:22:28.702Z,25.83
2017-01-02T23:22:56.552Z,25.77
2017-01-02T23:23:24.325Z,25.73
2017-01-02T23:23:52.136Z,25.75
2017-01-02T23:24:19.921Z,25.7
2017-01-02T23:24:47.731Z,25.73
2017-01-02T23:25:15.460Z,25.7
2017-01-02T23:25:43.242Z,25.7
2017-01-02T23:26:11.122Z,25.7
2017-01-02T23:26:38.892Z,25.63
2017-01-02T23:27:06.620Z,25.77
2017-01-02T23:27:34.505Z,25.72
2017-01-02T23:28:02.254Z,25.7
2017-01-02T23:28:30.089Z,25.7
2017-01-02T23:28:57.850Z,25.62
2017-01-02T23:29:25.629Z,25.55
2017-01-02T23:29:53.449Z,25.47
2017-01-02T23:30:21.276Z,25.46
2017-01-02T23:30:49.047Z,25.43
2017-01-02T23:31:16.873Z,25.41
2017-01-02T23:31:44.637Z,25.48
2017-01-02T23:32:12.411Z,25.48
2017-01-02T23:32:40.302Z,25.55
2017-01-02T23:33:08.080Z,25.6
2017-01-02T23:33:35.937Z,25.59
2017-01-02T23:34:03.735Z,25.62
2017-01-02T23:34:31.508Z,25.63
2017-01-02T23:34:59.341Z,25.69
2017-01-02T23:35:27.112Z,25.6
2017-01-02T23:35:54.900Z,25.6
2017-01-02T23:36:22.693Z,25.69
2017-01-02T23:36:50.451Z,25.66
2017-01-02T23:37:18.245Z,25.73
2017-01-02T23:37:46.130Z,25.62
2017-01-02T23:38:13.924Z,25.62
2017-01-02T23:38:41.711Z,25.69
2017-01-02T23:39:09.509Z,25.58
2017-01-02T23:39:37.258Z,25.6
2017-01-02T23:40:05.043Z,25.62
2017-01-02T23:40:32.837Z,25.62
2017-01-02T23:41:00.649Z,25.62
2017-01-02T23:41:28.404Z,25.58
2017-01-02T23:41:56.199Z,25.58
2017-01-02T23:42:23.965Z,25.44
2017-01-02T23:42:51.881Z,25.41
2017-01-02T23:43:19.680Z,25.46
2017-01-02T23:43:47.428Z,25.44
2017-01-02T23:44:15.317Z,25.48
2017-01-02T23:44:43.151Z,25.47
2017-01-02T23:45:10.949Z,25.5
2017-01-02T23:45:38.742Z,25.53
2017-01-02T23:46:06.584Z,25.62
2017-01-02T23:46:34.357Z,25.62
2017-01-02T23:47:02.127Z,25.65
2017-01-02T23:47:29.907Z,25.63
2017-01-02T23:47:57.810Z,25.6
2017-01-02T23:48:25.564Z,25.68
2017-01-02T23:48:53.374Z,25.65
2017-01-02T23:49:21.148Z,25.47
2017-01-02T23:49:48.967Z,25.47
2017-01-02T23:50:16.723Z,25.48
2017-01-02T23:50:44.521Z,25.6
2017-01-02T23:51:12.341Z,25.51
2017-01-02T23:51:40.154Z,25.6
2017-01-02T23:52:07.937Z,25.48
2017-01-02T23:52:35.710Z,25.62
2017-01-02T23:53:03.594Z,25.51
2017-01-02T23:53:31.366Z,25.46
2017-01-02T23:53:59.125Z,25.51
2017-01-02T23:54:26.907Z,25.54
2017-01-02T23:54:54.741Z,25.48
2017-01-02T23:55:22.678Z,25.46
2017-01-02T23:55:50.458Z,25.51
2017-01-02T23:56:18.257Z,25.41
2017-01-02T23:56:46.025Z,25.53
2017-01-02T23:57:13.797Z,25.51
2017-01-02T23:57:41.579Z,25.43
2017-01-02T23:58:09.471Z,25.4
2017-01-02T23:58:37.254Z,25.51
2017-01-02T23:59:05.019Z,25.5
2017-01-02T23:59:32.765Z,25.44
